Time;durP1;ratioP1;P1;durP2;ratioP2;P2;SDS_P1;SDS_P2;PMS_P1;PMS_P2;Temp;Humidity;BMP_temperature;BMP_pressure;BME280_temperature;BME280_humidity;BME280_pressure;Samples;Min_cycle;Max_cycle;Signal;HPM_P1;HPM_P2
2021/12/19 00:01:57;;;;;;;14.93;13.30;;;18.10;45.10;;;;;;5035537;28;20184;-66
2021/12/19 00:04:36;;;;;;;15.52;14.00;;;18.10;45.10;;;;;;5034245;28;20242;-67
2021/12/19 00:09:48;;;;;;;15.70;14.10;;;18.10;45.10;;;;;;5017351;28;20261;-66
2021/12/19 00:12:16;;;;;;;16.17;14.52;;;18.00;44.90;;;;;;5017377;28;20266;-66
2021/12/19 00:14:43;;;;;;;15.50;14.05;;;18.00;44.70;;;;;;5017494;28;20589;-64
2021/12/19 00:17:10;;;;;;;15.73;14.18;;;17.90;45.00;;;;;;5033622;28;20247;-67
2021/12/19 00:19:39;;;;;;;14.90;13.40;;;18.00;45.00;;;;;;5017674;28;20200;-67
2021/12/19 00:22:06;;;;;;;15.45;13.15;;;17.90;45.30;;;;;;5033983;28;20246;-68
2021/12/19 00:24:33;;;;;;;14.73;13.20;;;17.90;45.00;;;;;;5033451;28;20606;-64
2021/12/19 00:27:00;;;;;;;16.55;14.45;;;17.90;45.40;;;;;;5017831;28;20236;-66
2021/12/19 00:29:28;;;;;;;14.57;13.07;;;17.90;45.10;;;;;;5034162;28;20200;-67
2021/12/19 00:31:55;;;;;;;15.73;14.10;;;17.90;45.10;;;;;;5035628;28;20583;-65
2021/12/19 00:34:23;;;;;;;15.35;13.63;;;17.80;44.90;;;;;;5044103;28;20196;-65
2021/12/19 00:36:51;;;;;;;15.93;14.32;;;17.80;45.00;;;;;;5041630;28;20235;-67
2021/12/19 00:39:18;;;;;;;14.45;13.05;;;17.80;44.90;;;;;;5041023;28;20192;-66
2021/12/19 00:41:52;;;;;;;16.23;14.63;;;17.80;45.20;;;;;;5019494;28;20189;-65
2021/12/19 00:44:23;;;;;;;14.20;12.75;;;17.80;45.10;;;;;;5036606;28;20176;-66
2021/12/19 00:46:53;;;;;;;14.48;12.57;;;17.70;45.20;;;;;;5017726;28;20255;-67
2021/12/19 00:49:20;;;;;;;14.63;13.13;;;17.70;45.20;;;;;;5033691;28;20196;-67
2021/12/19 00:51:47;;;;;;;15.02;13.43;;;17.70;45.10;;;;;;5034988;28;20559;-64
2021/12/19 00:54:16;;;;;;;15.73;13.85;;;17.70;45.20;;;;;;5017176;28;20348;-67
2021/12/19 00:56:44;;;;;;;14.80;13.30;;;17.70;45.00;;;;;;5033937;28;20216;-67
2021/12/19 00:59:11;;;;;;;16.08;14.38;;;17.70;45.60;;;;;;5034395;28;20577;-66
2021/12/19 01:01:38;;;;;;;16.17;14.57;;;17.70;45.00;;;;;;5018692;28;20202;-65
2021/12/19 01:04:07;;;;;;;14.93;13.32;;;17.70;44.90;;;;;;5035031;28;20200;-66
2021/12/19 01:06:34;;;;;;;14.73;13.23;;;17.60;45.30;;;;;;5035188;28;20311;-66
2021/12/19 01:09:01;;;;;;;15.57;13.82;;;17.60;45.10;;;;;;5033764;28;20204;-66
2021/12/19 01:11:29;;;;;;;14.88;13.38;;;17.60;45.00;;;;;;5017035;28;20200;-64
2021/12/19 01:13:56;;;;;;;15.15;13.55;;;17.60;45.10;;;;;;5034888;28;20262;-66
2021/12/19 01:16:23;;;;;;;15.32;13.35;;;17.60;45.30;;;;;;5033138;28;20227;-65
2021/12/19 01:18:51;;;;;;;14.90;13.15;;;17.60;45.20;;;;;;5034584;28;20215;-67
2021/12/19 01:21:18;;;;;;;15.80;14.20;;;17.50;45.00;;;;;;5034269;28;20286;-66
2021/12/19 01:23:45;;;;;;;16.42;14.55;;;17.60;45.00;;;;;;5034908;28;20184;-67
2021/12/19 01:26:12;;;;;;;15.10;13.50;;;17.50;45.00;;;;;;5034284;28;20287;-67
2021/12/19 01:28:42;;;;;;;17.20;15.40;;;17.50;45.00;;;;;;5016435;28;20242;-65
2021/12/19 01:31:09;;;;;;;15.63;14.00;;;17.50;45.00;;;;;;5016915;28;20196;-66
2021/12/19 01:33:37;;;;;;;15.30;13.65;;;17.50;45.10;;;;;;5032840;28;20708;-68
2021/12/19 01:36:05;;;;;;;16.15;14.45;;;17.50;45.00;;;;;;5015696;28;20246;-67
2021/12/19 01:38:32;;;;;;;15.30;13.70;;;17.50;45.00;;;;;;5016641;28;20678;-67
2021/12/19 01:40:59;;;;;;;14.45;13.05;;;17.50;45.00;;;;;;5016873;28;20204;-66
2021/12/19 01:43:27;;;;;;;15.13;13.52;;;17.50;45.00;;;;;;5016292;28;20207;-67
2021/12/19 01:45:56;;;;;;;14.77;13.27;;;17.40;45.00;;;;;;5015844;28;20255;-66
2021/12/19 01:48:23;;;;;;;16.27;13.43;;;17.50;45.20;;;;;;5034014;28;20212;-66
2021/12/19 01:50:51;;;;;;;15.25;13.75;;;17.40;45.00;;;;;;5033701;28;20196;-65
2021/12/19 01:53:19;;;;;;;14.18;12.63;;;17.40;44.70;;;;;;5032210;28;20216;-67
2021/12/19 01:55:47;;;;;;;15.60;13.63;;;17.40;44.90;;;;;;5032417;28;20212;-66
2021/12/19 01:58:14;;;;;;;14.98;13.38;;;17.40;44.80;;;;;;5016102;28;20207;-67
2021/12/19 02:00:42;;;;;;;15.45;13.75;;;17.40;44.90;;;;;;5015881;28;20204;-66
2021/12/19 02:03:11;;;;;;;15.32;13.73;;;17.40;44.90;;;;;;5033406;28;20192;-67
2021/12/19 02:05:38;;;;;;;16.10;13.90;;;17.30;44.70;;;;;;5015847;28;20220;-68
2021/12/19 02:08:06;;;;;;;15.00;13.18;;;17.30;44.90;;;;;;5015854;28;20291;-66
2021/12/19 02:10:33;;;;;;;15.57;13.93;;;17.40;45.00;;;;;;5033464;28;20184;-64
2021/12/19 02:13:01;;;;;;;15.07;13.48;;;17.30;44.90;;;;;;5032302;28;20271;-63
2021/12/19 02:15:29;;;;;;;15.98;14.23;;;17.40;45.00;;;;;;5031831;28;20254;-67
2021/12/19 02:17:58;;;;;;;14.85;13.30;;;17.30;44.80;;;;;;5032252;28;20192;-67
2021/12/19 02:20:26;;;;;;;14.98;13.40;;;17.30;44.90;;;;;;5015341;28;20196;-65
2021/12/19 02:22:54;;;;;;;15.57;13.90;;;17.30;45.60;;;;;;5015427;28;20224;-64
2021/12/19 02:25:20;;;;;;;14.75;13.25;;;17.30;45.00;;;;;;5031860;28;20223;-67
2021/12/19 02:27:48;;;;;;;15.68;13.50;;;17.20;44.90;;;;;;5032305;28;20196;-66
2021/12/19 02:30:15;;;;;;;14.55;13.05;;;17.30;45.10;;;;;;5032498;28;20200;-63
2021/12/19 02:32:42;;;;;;;15.70;14.07;;;17.20;45.50;;;;;;5015607;28;20216;-65
2021/12/19 02:35:12;;;;;;;15.32;13.73;;;17.20;45.00;;;;;;5015713;28;20274;-67
2021/12/19 02:38:08;;;;;;;15.30;13.70;;;17.20;44.90;;;;;;5033265;28;20203;-65
2021/12/19 02:48:49;;;;;;;15.40;13.45;;;17.10;45.00;;;;;;5021141;28;20188;-66
2021/12/19 02:51:16;;;;;;;16.33;14.57;;;17.10;44.90;;;;;;5038958;28;20243;-66
2021/12/19 02:53:46;;;;;;;16.15;13.88;;;17.10;44.80;;;;;;5038144;28;20242;-68
2021/12/19 02:56:14;;;;;;;15.20;13.60;;;17.10;44.80;;;;;;5037532;28;20212;-66
2021/12/19 02:58:43;;;;;;;15.32;13.70;;;17.10;44.90;;;;;;5020225;28;20200;-66
2021/12/19 03:01:11;;;;;;;14.90;13.40;;;17.10;45.00;;;;;;5019757;28;20567;-65
2021/12/19 03:03:39;;;;;;;15.40;13.80;;;17.10;45.00;;;;;;5019904;28;20196;-64
2021/12/19 03:06:06;;;;;;;15.25;13.65;;;17.10;44.90;;;;;;5019668;28;20680;-66
2021/12/19 03:08:34;;;;;;;15.50;13.82;;;17.10;45.00;;;;;;5019483;28;20290;-66
2021/12/19 03:19:17;;;;;;;15.30;13.70;;;17.10;45.00;;;;;;5019157;28;20192;-65
2021/12/19 03:21:44;;;;;;;14.73;13.23;;;17.00;44.80;;;;;;5035404;28;20199;-67
2021/12/19 03:24:11;;;;;;;14.80;13.15;;;17.00;45.00;;;;;;5036671;28;20203;-67
2021/12/19 03:26:40;;;;;;;14.88;13.30;;;17.00;45.00;;;;;;5019011;28;20790;-65
2021/12/19 03:29:07;;;;;;;15.13;13.52;;;17.00;44.90;;;;;;5036884;28;20215;-64
2021/12/19 03:31:35;;;;;;;14.82;13.13;;;17.00;44.90;;;;;;5039504;28;20196;-68
2021/12/19 03:34:02;;;;;;;14.07;12.68;;;17.00;44.90;;;;;;5040852;28;20214;-66
2021/12/19 03:36:30;;;;;;;13.88;12.43;;;17.00;44.90;;;;;;5023007;28;20216;-64
2021/12/19 03:38:59;;;;;;;14.45;12.95;;;16.90;44.80;;;;;;5021968;28;20200;-66
2021/12/19 03:41:33;;;;;;;14.57;13.05;;;17.00;44.90;;;;;;5018671;28;20258;-64
2021/12/19 03:44:02;;;;;;;13.50;12.10;;;16.90;45.00;;;;;;5035218;28;20539;-65
2021/12/19 03:46:29;;;;;;;14.85;13.25;;;16.90;44.90;;;;;;5018349;28;20644;-65
2021/12/19 03:48:56;;;;;;;14.27;12.77;;;16.90;44.90;;;;;;5034516;28;20210;-66
2021/12/19 03:51:24;;;;;;;15.13;13.23;;;16.90;45.60;;;;;;5034457;28;20196;-67
2021/12/19 03:53:51;;;;;;;14.60;12.60;;;16.90;45.00;;;;;;5017884;28;20273;-63
2021/12/19 03:56:18;;;;;;;15.23;13.63;;;16.90;44.90;;;;;;5035761;28;20211;-64
2021/12/19 03:58:46;;;;;;;14.85;13.25;;;16.90;44.90;;;;;;5017239;28;20532;-67
2021/12/19 04:01:14;;;;;;;13.88;12.48;;;16.90;45.00;;;;;;5034386;28;20306;-65
2021/12/19 04:03:41;;;;;;;15.32;13.52;;;16.90;45.20;;;;;;5017706;28;20193;-63
2021/12/19 04:06:09;;;;;;;15.43;13.82;;;16.80;45.00;;;;;;5017744;28;20232;-67
2021/12/19 04:08:36;;;;;;;14.15;12.65;;;16.90;45.00;;;;;;5034131;28;20204;-66
2021/12/19 04:11:03;;;;;;;15.60;13.85;;;16.80;44.90;;;;;;5034081;28;20200;-66
2021/12/19 04:13:29;;;;;;;14.60;13.10;;;16.80;45.00;;;;;;5033740;28;20226;-64
2021/12/19 04:15:57;;;;;;;16.00;14.38;;;16.80;45.00;;;;;;5017009;28;20227;-67
2021/12/19 04:18:25;;;;;;;15.85;13.85;;;16.80;45.40;;;;;;5017444;28;20293;-65
2021/12/19 04:20:52;;;;;;;17.92;15.07;;;16.80;45.40;;;;;;5017462;28;20199;-64
2021/12/19 04:23:19;;;;;;;16.15;14.13;;;16.80;45.20;;;;;;5033639;28;20188;-67
2021/12/19 04:25:46;;;;;;;16.75;14.23;;;16.80;45.20;;;;;;5017199;28;20223;-67
2021/12/19 04:28:14;;;;;;;16.23;13.50;;;16.80;45.00;;;;;;5035090;28;20196;-65
2021/12/19 04:30:41;;;;;;;16.95;14.05;;;16.80;45.00;;;;;;5033725;28;20250;-64
2021/12/19 04:33:10;;;;;;;14.95;13.40;;;16.90;45.00;;;;;;5034882;28;20779;-67
2021/12/19 04:35:41;;;;;;;14.35;12.85;;;16.90;44.90;;;;;;5017056;28;20220;-65
2021/12/19 04:38:45;;;;;;;14.70;12.73;;;16.90;44.90;;;;;;5017500;28;20222;-68
2021/12/19 04:52:27;;;;;;;13.77;12.15;;;17.00;44.60;;;;;;5034533;28;20215;-66
2021/12/19 04:55:14;;;;;;;13.40;12.05;;;17.00;44.60;;;;;;5016593;28;20219;-67
2021/12/19 04:57:47;;;;;;;14.27;12.70;;;17.00;44.40;;;;;;5016680;28;20652;-67
2021/12/19 05:00:18;;;;;;;13.75;11.73;;;17.00;44.30;;;;;;5034279;28;20199;-66
2021/12/19 05:02:55;;;;;;;13.55;12.05;;;17.00;44.30;;;;;;5033043;28;20667;-67
2021/12/19 05:05:41;;;;;;;13.25;11.85;;;17.10;44.40;;;;;;5034251;28;20216;-67
2021/12/19 05:16:23;;;;;;;11.65;10.45;;;17.20;44.40;;;;;;5033873;28;20224;-65
2021/12/19 05:18:52;;;;;;;10.98;9.85;;;17.20;44.30;;;;;;5033950;28;20219;-67
2021/12/19 05:21:24;;;;;;;11.30;10.20;;;17.20;44.40;;;;;;5032642;28;20223;-66
2021/12/19 05:24:16;;;;;;;10.95;9.85;;;17.20;44.20;;;;;;5015926;28;20192;-66
2021/12/19 05:26:44;;;;;;;11.23;10.02;;;17.20;44.10;;;;;;5032487;28;20314;-64
2021/12/19 05:29:11;;;;;;;10.70;9.60;;;17.20;44.10;;;;;;5032410;28;20430;-65
2021/12/19 05:31:38;;;;;;;11.15;10.02;;;17.20;44.10;;;;;;5015995;28;20277;-67
2021/12/19 05:34:05;;;;;;;10.82;9.80;;;17.30;44.10;;;;;;5033505;28;20208;-65
2021/12/19 05:47:31;;;;;;;9.35;8.45;;;17.30;43.60;;;;;;5015594;28;20196;-64
2021/12/19 05:49:58;;;;;;;9.73;8.82;;;17.30;43.60;;;;;;5032119;28;20204;-67
2021/12/19 05:52:26;;;;;;;9.48;8.57;;;17.40;43.70;;;;;;5031628;28;20214;-65
2021/12/19 05:54:54;;;;;;;9.18;8.27;;;17.40;43.70;;;;;;5032902;28;20219;-65
2021/12/19 05:57:21;;;;;;;8.77;7.90;;;17.40;43.70;;;;;;5033131;28;20196;-66
2021/12/19 05:59:50;;;;;;;9.30;8.40;;;17.40;44.30;;;;;;5033078;28;20192;-69
2021/12/19 06:02:17;;;;;;;9.05;8.15;;;17.40;43.60;;;;;;5031777;28;20612;-67
2021/12/19 06:04:44;;;;;;;8.80;8.00;;;17.40;43.60;;;;;;5015238;28;20204;-64
2021/12/19 06:07:11;;;;;;;8.88;8.07;;;17.40;43.60;;;;;;5032856;28;20299;-67
2021/12/19 06:09:38;;;;;;;8.75;7.95;;;17.50;43.70;;;;;;5031608;28;20569;-65
2021/12/19 06:12:08;;;;;;;9.50;8.60;;;17.40;43.60;;;;;;5015162;28;20588;-65
2021/12/19 06:14:35;;;;;;;8.82;8.00;;;17.50;43.50;;;;;;5031569;28;20648;-65
2021/12/19 06:17:02;;;;;;;9.88;8.88;;;17.50;43.50;;;;;;5015415;28;20219;-67
2021/12/19 06:19:29;;;;;;;9.63;8.73;;;17.50;43.50;;;;;;5015487;28;20203;-67
2021/12/19 06:21:57;;;;;;;10.52;9.00;;;17.50;43.60;;;;;;5032193;28;20266;-64
2021/12/19 06:24:24;;;;;;;9.40;8.50;;;17.50;43.50;;;;;;5015686;28;20278;-65
2021/12/19 06:26:51;;;;;;;9.32;8.15;;;17.50;43.40;;;;;;5031478;28;20252;-66
2021/12/19 06:29:19;;;;;;;9.25;8.35;;;17.50;43.30;;;;;;5015507;28;20243;-66
2021/12/19 06:31:47;;;;;;;9.20;8.30;;;17.50;43.30;;;;;;5015193;28;20544;-66
2021/12/19 06:34:14;;;;;;;9.45;8.45;;;17.50;43.40;;;;;;5031430;28;20231;-67
2021/12/19 06:36:41;;;;;;;9.50;8.60;;;17.50;43.20;;;;;;5015180;28;20707;-66
2021/12/19 06:39:08;;;;;;;8.93;8.05;;;17.50;43.20;;;;;;5032579;28;20652;-65
2021/12/19 06:41:36;;;;;;;8.88;7.97;;;17.60;43.40;;;;;;5015244;28;20254;-65
2021/12/19 06:44:05;;;;;;;9.05;8.18;;;17.50;43.10;;;;;;5015125;28;20262;-65
2021/12/19 06:46:34;;;;;;;8.77;7.88;;;17.60;43.30;;;;;;5032573;28;20761;-65
2021/12/19 06:49:00;;;;;;;9.20;8.10;;;17.60;43.30;;;;;;5032542;28;20676;-66
2021/12/19 06:51:27;;;;;;;9.15;8.25;;;17.60;43.20;;;;;;5031209;28;20257;-65
2021/12/19 06:53:54;;;;;;;8.57;7.78;;;17.60;43.20;;;;;;5030821;28;20230;-67
2021/12/19 06:56:22;;;;;;;8.13;7.43;;;17.60;43.20;;;;;;5014652;28;20251;-66
2021/12/19 06:58:49;;;;;;;8.20;7.40;;;17.60;43.00;;;;;;5032512;28;20523;-64
2021/12/19 07:01:16;;;;;;;8.45;7.65;;;17.60;43.10;;;;;;5031189;28;20223;-65
2021/12/19 07:03:44;;;;;;;8.43;7.63;;;17.60;42.90;;;;;;5030927;28;20212;-67
2021/12/19 07:06:11;;;;;;;8.23;7.43;;;17.60;43.00;;;;;;5014528;28;20568;-65
2021/12/19 07:08:38;;;;;;;8.45;7.65;;;17.60;43.10;;;;;;5030915;28;20200;-66
2021/12/19 07:11:06;;;;;;;8.15;7.45;;;17.60;43.00;;;;;;5014662;28;20699;-68
2021/12/19 07:13:33;;;;;;;8.18;7.38;;;17.60;43.60;;;;;;5014358;28;20208;-67
2021/12/19 07:16:00;;;;;;;8.23;7.45;;;17.60;43.60;;;;;;5030592;28;20232;-65
2021/12/19 07:18:27;;;;;;;7.80;7.00;;;17.60;43.10;;;;;;5014414;28;20617;-65
2021/12/19 07:20:56;;;;;;;7.25;6.57;;;17.60;43.00;;;;;;5030989;28;20204;-68
2021/12/19 07:23:23;;;;;;;7.70;7.00;;;17.60;43.00;;;;;;5014532;28;20723;-66
2021/12/19 07:25:50;;;;;;;7.55;6.85;;;17.70;43.00;;;;;;5030909;28;20296;-64
2021/12/19 07:28:17;;;;;;;7.35;6.65;;;17.60;42.90;;;;;;5030750;28;20625;-68
2021/12/19 07:30:44;;;;;;;7.65;6.95;;;17.60;42.90;;;;;;5030546;28;20210;-68
2021/12/19 07:33:12;;;;;;;7.43;6.78;;;17.70;43.60;;;;;;5014260;28;20196;-65
2021/12/19 07:35:41;;;;;;;6.70;6.13;;;17.70;42.90;;;;;;5033748;28;20227;-65
2021/12/19 07:38:12;;;;;;;7.35;6.65;;;17.70;42.90;;;;;;5017925;28;20240;-65
2021/12/19 07:40:46;;;;;;;7.28;6.65;;;17.70;43.00;;;;;;5034463;28;20258;-65
2021/12/19 07:43:13;;;;;;;6.88;6.28;;;17.70;43.00;;;;;;5034010;28;20194;-64
2021/12/19 07:45:40;;;;;;;7.00;6.35;;;17.70;42.90;;;;;;5034282;28;20216;-64
2021/12/19 07:48:08;;;;;;;7.40;6.70;;;17.70;42.80;;;;;;5034387;28;20205;-67
2021/12/19 07:50:34;;;;;;;7.35;6.65;;;17.70;42.80;;;;;;5034286;28;20675;-66
2021/12/19 07:53:03;;;;;;;6.85;6.25;;;17.70;42.80;;;;;;5017566;28;20573;-66
2021/12/19 07:55:32;;;;;;;6.63;6.03;;;17.70;42.90;;;;;;5033966;28;20315;-67
2021/12/19 07:57:58;;;;;;;6.05;5.55;;;17.70;42.80;;;;;;5034041;28;20219;-67
2021/12/19 08:00:25;;;;;;;6.72;6.13;;;17.70;42.70;;;;;;5034154;28;20201;-67
2021/12/19 08:02:52;;;;;;;6.53;5.93;;;17.80;42.80;;;;;;5035093;28;20198;-66
2021/12/19 08:05:21;;;;;;;6.53;5.93;;;17.80;42.80;;;;;;5017170;28;20216;-67
2021/12/19 08:07:49;;;;;;;6.80;6.20;;;17.70;42.80;;;;;;5017608;28;20196;-68
2021/12/19 08:11:39;;;;;;;6.82;6.22;;;17.80;42.80;;;;;;5017348;28;20257;-66
2021/12/19 08:13:05;;;;;;;6.93;6.32;;;17.80;42.60;;;;;;5033542;28;20574;-67
2021/12/19 08:15:33;;;;;;;6.55;5.95;;;17.80;42.70;;;;;;5033612;28;20644;-67
2021/12/19 08:18:00;;;;;;;6.30;5.80;;;17.80;42.70;;;;;;5035239;28;20185;-66
2021/12/19 08:20:27;;;;;;;6.57;5.97;;;17.80;42.80;;;;;;5017259;28;20211;-66
2021/12/19 08:22:54;;;;;;;6.32;5.82;;;17.80;42.60;;;;;;5033789;28;20480;-67
2021/12/19 08:25:21;;;;;;;6.60;6.00;;;17.80;42.70;;;;;;5034801;28;20212;-68
2021/12/19 08:27:49;;;;;;;6.40;5.80;;;17.80;42.70;;;;;;5017310;28;20196;-65
2021/12/19 08:30:18;;;;;;;6.38;5.78;;;17.80;42.60;;;;;;5033579;28;20232;-67
2021/12/19 08:32:45;;;;;;;6.53;5.93;;;17.80;42.50;;;;;;5033338;28;20739;-68
2021/12/19 08:35:12;;;;;;;5.88;5.38;;;17.80;42.50;;;;;;5033451;28;20695;-66
2021/12/19 08:37:39;;;;;;;6.05;5.53;;;17.80;42.50;;;;;;5033379;28;20189;-66
2021/12/19 08:40:09;;;;;;;5.88;5.28;;;17.80;42.40;;;;;;5033565;28;20228;-66
2021/12/19 08:42:37;;;;;;;5.75;5.25;;;17.90;42.60;;;;;;5016930;28;20203;-67
2021/12/19 08:45:04;;;;;;;6.30;5.70;;;17.90;42.60;;;;;;5032937;28;20192;-66
2021/12/19 08:47:33;;;;;;;6.35;5.75;;;17.90;42.50;;;;;;5033805;28;20207;-65
2021/12/19 08:50:00;;;;;;;5.90;5.40;;;17.90;42.50;;;;;;5035051;28;20207;-68
2021/12/19 08:52:27;;;;;;;5.47;4.97;;;17.90;42.40;;;;;;5017274;28;20246;-68
2021/12/19 08:54:54;;;;;;;5.53;5.13;;;17.90;42.40;;;;;;5033339;28;20219;-67
2021/12/19 08:57:21;;;;;;;5.60;5.10;;;17.90;42.30;;;;;;5016721;28;20303;-65
2021/12/19 08:59:48;;;;;;;5.55;5.05;;;17.90;42.40;;;;;;5016400;28;20266;-67
2021/12/19 09:02:15;;;;;;;5.65;5.15;;;17.90;42.30;;;;;;5016468;28;20291;-67
2021/12/19 09:04:44;;;;;;;5.57;5.07;;;17.90;42.30;;;;;;5033373;28;20196;-66
2021/12/19 09:07:12;;;;;;;5.57;5.15;;;17.90;42.30;;;;;;5033115;28;20567;-66
2021/12/19 09:09:40;;;;;;;4.80;4.40;;;17.90;42.30;;;;;;5016637;28;20216;-66
2021/12/19 09:12:08;;;;;;;5.57;5.07;;;17.90;42.20;;;;;;5033328;28;20552;-67
2021/12/19 09:14:35;;;;;;;5.10;4.70;;;17.90;42.10;;;;;;5017241;28;20247;-67
2021/12/19 09:17:02;;;;;;;5.10;4.70;;;17.90;42.20;;;;;;5016612;28;20710;-64
2021/12/19 09:19:29;;;;;;;5.45;4.95;;;17.90;42.20;;;;;;5034469;28;20211;-67
2021/12/19 09:21:58;;;;;;;5.50;5.00;;;17.90;42.20;;;;;;5032700;28;20656;-68
2021/12/19 09:24:24;;;;;;;5.57;5.07;;;17.90;42.20;;;;;;5032725;28;20219;-66
2021/12/19 09:26:52;;;;;;;5.57;5.07;;;18.00;42.20;;;;;;5033746;28;20251;-66
2021/12/19 09:29:19;;;;;;;4.85;4.45;;;18.00;42.30;;;;;;5015964;28;20203;-67
2021/12/19 09:31:46;;;;;;;5.13;4.72;;;18.00;42.10;;;;;;5033943;28;20266;-66
2021/12/19 09:34:13;;;;;;;5.10;4.68;;;18.00;42.20;;;;;;5032567;28;20200;-65
2021/12/19 09:36:40;;;;;;;4.50;4.15;;;18.00;42.30;;;;;;5033741;28;20216;-68
2021/12/19 09:39:09;;;;;;;4.80;4.40;;;18.00;42.20;;;;;;5032636;28;20200;-68
2021/12/19 09:41:42;;;;;;;4.68;4.28;;;18.00;42.20;;;;;;5032310;28;20680;-68
2021/12/19 09:44:11;;;;;;;5.05;4.65;;;18.00;42.30;;;;;;5033914;28;20222;-68
2021/12/19 09:46:40;;;;;;;4.70;4.30;;;18.00;42.20;;;;;;5033731;28;20211;-66
2021/12/19 09:49:07;;;;;;;5.13;4.65;;;18.00;42.20;;;;;;5032436;28;20204;-66
2021/12/19 09:51:34;;;;;;;4.90;4.45;;;18.00;42.20;;;;;;5033556;28;20535;-65
2021/12/19 09:54:01;;;;;;;4.53;4.13;;;18.00;42.20;;;;;;5032169;28;20206;-68
2021/12/19 09:56:33;;;;;;;4.20;3.90;;;18.00;42.10;;;;;;5031525;28;20332;-65
2021/12/19 09:59:00;;;;;;;4.47;4.07;;;18.00;42.20;;;;;;5033282;28;20176;-67
2021/12/19 10:01:27;;;;;;;4.28;3.92;;;18.00;42.20;;;;;;5032465;28;20192;-65
2021/12/19 10:03:54;;;;;;;4.75;4.35;;;18.00;42.10;;;;;;5033515;28;20246;-65
2021/12/19 10:06:24;;;;;;;4.15;3.85;;;18.10;42.10;;;;;;5015399;28;20236;-66
2021/12/19 10:09:08;;;;;;;4.25;3.92;;;18.10;42.00;;;;;;5032168;28;20291;-66
2021/12/19 10:11:47;;;;;;;4.40;4.10;;;18.10;42.10;;;;;;5031654;28;20196;-68
2021/12/19 10:14:28;;;;;;;4.45;4.05;;;18.10;42.10;;;;;;5032226;28;20640;-67
2021/12/19 10:16:55;;;;;;;4.22;3.90;;;18.10;42.00;;;;;;5031865;28;20279;-65
2021/12/19 10:19:22;;;;;;;3.97;3.67;;;18.10;42.00;;;;;;5015688;28;20199;-65
2021/12/19 10:21:49;;;;;;;3.92;3.65;;;18.20;42.10;;;;;;5033707;28;20198;-68
2021/12/19 10:24:32;;;;;;;4.00;3.60;;;18.20;41.80;;;;;;5032698;28;20246;-66
2021/12/19 10:27:00;;;;;;;3.95;3.65;;;18.20;42.00;;;;;;5016308;28;20247;-68
2021/12/19 10:29:43;;;;;;;3.85;3.55;;;18.20;41.90;;;;;;5033350;28;20192;-66
2021/12/19 10:32:10;;;;;;;4.18;3.88;;;18.20;41.70;;;;;;5015977;28;20218;-65
2021/12/19 10:34:36;;;;;;;4.10;3.70;;;18.20;42.20;;;;;;5032284;28;20215;-65
2021/12/19 10:37:05;;;;;;;4.15;3.80;;;18.30;41.30;;;;;;5033893;28;20235;-69
2021/12/19 10:39:37;;;;;;;4.22;3.65;;;18.30;41.20;;;;;;5032276;28;20184;-69
2021/12/19 10:42:06;;;;;;;4.30;3.63;;;18.30;41.20;;;;;;5032527;28;20214;-66
2021/12/19 10:47:21;;;;;;;3.97;3.67;;;18.40;41.70;;;;;;5034138;28;20582;-69
2021/12/19 10:49:48;;;;;;;4.07;3.58;;;18.40;41.90;;;;;;5016099;28;20656;-68
2021/12/19 10:52:15;;;;;;;3.53;3.25;;;18.50;42.20;;;;;;5016050;28;20204;-69
2021/12/19 10:54:57;;;;;;;4.07;3.60;;;18.50;42.40;;;;;;5016991;28;20684;-67
2021/12/19 10:57:31;;;;;;;3.70;3.40;;;18.50;42.50;;;;;;5016584;28;20184;-66
2021/12/19 10:59:58;;;;;;;26.70;13.93;;;18.50;42.20;;;;;;5016534;28;20198;-67
2021/12/19 11:02:40;;;;;;;257.30;135.57;;;18.60;45.10;;;;;;5016239;28;20224;-67
2021/12/19 11:05:08;;;;;;;213.82;110.65;;;18.60;51.90;;;;;;5016017;28;20199;-66
2021/12/19 11:07:36;;;;;;;126.30;62.25;;;18.70;50.80;;;;;;5016218;28;20203;-68
2021/12/19 11:10:05;;;;;;;85.28;48.03;;;18.70;48.20;;;;;;5036199;28;20730;-68
2021/12/19 11:12:33;;;;;;;67.82;38.60;;;18.70;46.60;;;;;;5017935;28;20204;-66
2021/12/19 11:15:00;;;;;;;63.55;33.40;;;18.80;45.50;;;;;;5035847;28;20215;-65
2021/12/19 11:17:27;;;;;;;61.25;32.35;;;18.80;45.00;;;;;;5019251;28;20196;-68
2021/12/19 11:19:55;;;;;;;56.42;31.10;;;18.80;44.80;;;;;;5037100;28;20192;-66
2021/12/19 11:22:26;;;;;;;53.13;29.45;;;18.80;44.70;;;;;;5019061;28;20664;-67
2021/12/19 11:24:53;;;;;;;49.50;28.73;;;18.80;44.40;;;;;;5035809;28;20203;-68
2021/12/19 11:27:21;;;;;;;47.72;26.90;;;18.90;44.30;;;;;;5019205;28;20206;-66
2021/12/19 11:29:50;;;;;;;40.17;24.80;;;18.90;44.10;;;;;;5035229;28;20196;-68
2021/12/19 11:32:19;;;;;;;40.25;25.42;;;18.90;44.20;;;;;;5018777;28;20207;-69
2021/12/19 11:34:57;;;;;;;39.42;23.90;;;18.90;44.10;;;;;;5018374;28;20208;-67
2021/12/19 11:37:26;;;;;;;36.40;22.83;;;19.00;43.80;;;;;;5035062;28;20585;-64
2021/12/19 11:39:55;;;;;;;37.42;22.38;;;19.00;43.90;;;;;;5035146;28;20660;-66
2021/12/19 11:42:30;;;;;;;35.95;21.15;;;19.00;43.80;;;;;;5018769;28;20199;-67
2021/12/19 11:45:14;;;;;;;32.38;19.98;;;19.00;43.70;;;;;;5018579;28;20199;-64
2021/12/19 11:47:49;;;;;;;33.15;18.92;;;19.00;43.60;;;;;;5018333;28;20192;-67
2021/12/19 11:50:23;;;;;;;32.10;17.88;;;19.00;43.50;;;;;;5034705;28;20213;-69
2021/12/19 11:52:51;;;;;;;30.77;17.85;;;19.10;43.60;;;;;;5034700;28;20184;-66
2021/12/19 11:55:29;;;;;;;31.02;17.45;;;19.00;43.50;;;;;;5034675;28;20224;-68
2021/12/19 11:58:31;;;;;;;28.33;17.02;;;19.10;43.50;;;;;;5018907;28;20659;-67
2021/12/19 12:01:01;;;;;;;28.70;17.10;;;19.10;43.60;;;;;;5035550;28;20214;-66
2021/12/19 12:03:30;;;;;;;25.50;15.95;;;19.10;43.60;;;;;;5022701;28;20204;-65
2021/12/19 12:06:45;;;;;;;23.60;15.48;;;19.10;43.30;;;;;;5022774;28;20232;-67
2021/12/19 12:09:15;;;;;;;23.10;14.63;;;19.20;43.30;;;;;;5019582;28;20200;-67
2021/12/19 12:12:23;;;;;;;25.15;14.82;;;19.20;43.20;;;;;;5019096;28;20203;-68
2021/12/19 12:14:56;;;;;;;22.27;13.73;;;19.20;43.30;;;;;;5034002;28;20946;-66
2021/12/19 12:17:31;;;;;;;25.13;13.43;;;19.20;42.90;;;;;;5034779;28;20279;-66
2021/12/19 12:20:01;;;;;;;22.63;13.20;;;19.20;43.10;;;;;;5033832;28;20196;-68
2021/12/19 12:22:34;;;;;;;18.77;12.05;;;19.20;42.90;;;;;;5035538;28;20199;-67
2021/12/19 12:25:18;;;;;;;19.40;11.70;;;19.20;42.80;;;;;;5035552;28;20588;-68
2021/12/19 12:27:48;;;;;;;17.38;10.85;;;19.20;42.50;;;;;;5034315;28;20203;-66
2021/12/19 12:30:16;;;;;;;17.40;10.65;;;19.20;42.50;;;;;;5017277;28;20200;-66
2021/12/19 12:32:44;;;;;;;16.40;10.30;;;19.20;42.30;;;;;;5033959;28;20200;-67
2021/12/19 12:35:12;;;;;;;13.43;9.30;;;19.20;42.10;;;;;;5033679;28;20783;-67
2021/12/19 12:37:40;;;;;;;14.75;9.52;;;19.20;41.90;;;;;;5033749;28;20684;-66
2021/12/19 12:40:29;;;;;;;15.45;8.90;;;19.20;41.80;;;;;;5018196;28;20203;-66
2021/12/19 12:43:01;;;;;;;12.10;8.35;;;19.20;42.00;;;;;;5034577;28;20196;-67
2021/12/19 12:45:30;;;;;;;13.80;9.02;;;19.20;41.50;;;;;;5017494;28;20216;-68
2021/12/19 12:47:58;;;;;;;14.05;8.13;;;19.20;41.80;;;;;;5033612;28;20612;-67
2021/12/19 12:50:27;;;;;;;293.00;146.82;;;19.20;41.40;;;;;;5017306;28;20294;-67
2021/12/19 12:52:54;;;;;;;75.65;41.13;;;19.20;41.40;;;;;;5033691;28;20302;-65
2021/12/19 12:55:21;;;;;;;51.13;29.83;;;19.20;41.60;;;;;;5017010;28;20224;-66
2021/12/19 12:57:48;;;;;;;45.40;25.55;;;19.20;41.30;;;;;;5017184;28;20192;-67
2021/12/19 13:00:19;;;;;;;43.45;24.90;;;19.20;41.30;;;;;;5017649;28;20565;-65
2021/12/19 13:02:55;;;;;;;42.15;23.15;;;19.10;41.40;;;;;;5017599;28;20300;-66
2021/12/19 13:05:23;;;;;;;41.35;21.73;;;19.10;41.50;;;;;;5034562;28;20232;-67
2021/12/19 13:07:50;;;;;;;39.20;21.92;;;19.10;41.50;;;;;;5033645;28;20188;-67
2021/12/19 13:10:17;;;;;;;35.13;19.80;;;19.00;41.40;;;;;;5034605;28;20250;-65
2021/12/19 13:12:46;;;;;;;33.10;19.42;;;19.00;41.40;;;;;;5017045;28;20228;-65
2021/12/19 13:15:15;;;;;;;32.17;18.67;;;19.00;41.30;;;;;;5033206;28;20224;-66
2021/12/19 13:17:43;;;;;;;30.55;17.52;;;19.00;41.50;;;;;;5016842;28;20188;-67
2021/12/19 13:20:11;;;;;;;28.50;17.55;;;18.90;41.40;;;;;;5016471;28;20398;-68
2021/12/19 13:22:40;;;;;;;27.90;16.60;;;18.90;41.40;;;;;;5033195;28;20206;-65
2021/12/19 13:25:11;;;;;;;26.75;15.98;;;18.90;41.30;;;;;;5016399;28;20203;-66
2021/12/19 13:27:39;;;;;;;24.27;15.25;;;18.90;41.30;;;;;;5016409;28;20561;-66
2021/12/19 13:30:16;;;;;;;24.88;15.20;;;18.90;41.40;;;;;;5033340;28;20672;-67
2021/12/19 13:32:43;;;;;;;25.35;14.07;;;18.80;41.40;;;;;;5016759;28;20200;-67
2021/12/19 13:35:15;;;;;;;19.95;12.85;;;18.80;41.30;;;;;;5033938;28;20283;-64
2021/12/19 13:38:01;;;;;;;23.23;14.18;;;18.90;41.60;;;;;;5016486;28;20208;-64
2021/12/19 13:40:29;;;;;;;25.48;13.48;;;18.90;41.60;;;;;;5032756;28;20290;-67